createdAt,value
2019-04-14T00:00:22.975Z,34.43
2019-04-14T00:03:05.168Z,33.17
2019-04-14T00:05:35.467Z,30.70
2019-04-14T00:08:05.281Z,34.13
2019-04-14T00:10:33.789Z,31.40
2019-04-14T00:13:02.538Z,31.53
2019-04-14T00:15:38.841Z,32.80
2019-04-14T00:18:01.445Z,29.00
2019-04-14T00:20:29.902Z,32.40
2019-04-14T00:22:59.677Z,30.53
2019-04-14T00:25:28.432Z,29.73
2019-04-14T00:27:57.285Z,31.87
2019-04-14T00:30:27.229Z,31.23
2019-04-14T00:33:01.811Z,31.53
2019-04-14T00:35:47.208Z,33.17
2019-04-14T00:38:20.185Z,32.20
2019-04-14T00:41:05.327Z,33.33
2019-04-14T00:43:35.441Z,31.40
2019-04-14T00:46:14.718Z,35.47
2019-04-14T00:48:45.248Z,36.73
2019-04-14T00:51:13.759Z,35.40
2019-04-14T00:53:42.614Z,35.13
2019-04-14T00:56:11.082Z,40.50
2019-04-14T00:58:39.553Z,34.87
2019-04-14T01:01:09.060Z,40.10
2019-04-14T01:03:37.746Z,40.40
2019-04-14T01:06:07.535Z,35.77
2019-04-14T01:08:38.330Z,38.13
2019-04-14T01:11:07.396Z,37.90
2019-04-14T01:13:36.137Z,37.30
2019-04-14T01:16:11.548Z,39.17
2019-04-14T01:18:34.926Z,38.47
2019-04-14T01:21:04.503Z,36.20
2019-04-14T01:23:33.101Z,38.70
2019-04-14T01:26:02.803Z,37.77
2019-04-14T01:28:32.888Z,37.77
2019-04-14T01:31:01.491Z,39.53
2019-04-14T01:33:29.945Z,41.30
2019-04-14T01:35:59.630Z,40.63
2019-04-14T01:38:28.213Z,38.60
2019-04-14T01:40:57.690Z,38.43
2019-04-14T01:43:27.719Z,44.10
2019-04-14T01:46:05.205Z,38.53
2019-04-14T01:48:27.965Z,40.53
2019-04-14T01:50:58.450Z,41.00
2019-04-14T01:53:33.977Z,36.80
2019-04-14T01:56:04.089Z,36.17
2019-04-14T01:58:34.217Z,39.70
2019-04-14T02:01:07.004Z,36.47
2019-04-14T02:03:36.550Z,39.50
2019-04-14T02:06:05.288Z,37.53
2019-04-14T02:08:35.067Z,38.10
2019-04-14T02:11:05.117Z,38.77
2019-04-14T02:13:33.790Z,37.73
2019-04-14T02:16:16.475Z,36.07
2019-04-14T02:18:32.443Z,36.60
2019-04-14T02:21:02.039Z,37.27
2019-04-14T02:23:30.708Z,38.63
2019-04-14T02:26:00.097Z,39.87
2019-04-14T02:28:28.958Z,37.60
2019-04-14T02:31:10.320Z,41.07
2019-04-14T02:33:50.562Z,37.50
2019-04-14T02:36:32.269Z,35.83
2019-04-14T02:41:29.681Z,39.90
2019-04-14T02:43:58.059Z,35.87
2019-04-14T02:46:32.201Z,42.33
2019-04-14T02:51:26.919Z,40.17
2019-04-14T02:53:57.695Z,37.73
2019-04-14T03:04:09.039Z,35.77
2019-04-14T03:06:29.249Z,37.60
2019-04-14T03:11:43.988Z,36.40
2019-04-14T03:13:58.585Z,33.50
2019-04-14T03:19:06.741Z,31.53
2019-04-14T03:21:40.327Z,34.10
2019-04-14T03:24:29.253Z,32.53
2019-04-14T03:29:43.232Z,36.17
2019-04-14T03:32:31.822Z,36.37
2019-04-14T03:34:42.216Z,36.10
2019-04-14T03:39:49.621Z,36.53
2019-04-14T03:42:24.949Z,38.40
2019-04-14T03:44:48.940Z,35.80
2019-04-14T03:49:45.528Z,37.97
2019-04-14T03:52:18.999Z,35.77
2019-04-14T03:54:40.429Z,39.27
2019-04-14T03:56:53.643Z,36.17
2019-04-14T03:59:23.848Z,40.00
2019-04-14T04:01:52.540Z,38.43
2019-04-14T04:04:22.589Z,36.80
2019-04-14T04:06:51.329Z,34.93
2019-04-14T04:09:21.503Z,37.47
2019-04-14T04:11:49.986Z,37.53
2019-04-14T04:14:18.785Z,38.20
2019-04-14T04:16:52.861Z,36.83
2019-04-14T04:19:40.921Z,33.77
2019-04-14T04:22:30.322Z,34.30
2019-04-14T04:25:07.323Z,33.87
2019-04-14T04:27:40.323Z,33.50
2019-04-14T04:30:14.441Z,33.63
2019-04-14T04:32:57.873Z,34.87
2019-04-14T04:35:31.079Z,33.33
2019-04-14T04:38:18.091Z,35.00
2019-04-14T04:40:46.707Z,34.73
2019-04-14T04:43:15.182Z,33.20
2019-04-14T04:45:43.651Z,33.27
2019-04-14T04:48:13.153Z,33.77
2019-04-14T04:50:43.060Z,33.77
2019-04-14T04:53:11.656Z,35.00
2019-04-14T04:55:40.146Z,34.00
2019-04-14T04:58:09.973Z,34.53
2019-04-14T05:00:39.469Z,33.30
2019-04-14T05:03:08.100Z,31.93
2019-04-14T05:06:02.691Z,35.77
2019-04-14T05:08:32.587Z,33.40
2019-04-14T05:11:14.696Z,33.60
2019-04-14T05:13:44.789Z,35.70
2019-04-14T05:16:13.262Z,32.57
2019-04-14T05:18:41.905Z,33.27
2019-04-14T05:21:10.695Z,35.43
2019-04-14T05:23:39.176Z,33.93
2019-04-14T05:26:08.916Z,33.33
2019-04-14T05:28:37.994Z,34.07
2019-04-14T05:31:07.518Z,32.93
2019-04-14T05:33:36.422Z,32.37
2019-04-14T05:36:04.862Z,34.83
2019-04-14T05:38:34.400Z,32.10
2019-04-14T05:41:04.654Z,32.90
2019-04-14T05:43:42.898Z,32.03
2019-04-14T05:46:04.000Z,33.83
2019-04-14T05:48:33.641Z,31.10
2019-04-14T05:51:02.515Z,33.00
2019-04-14T05:53:31.061Z,33.67
2019-04-14T05:55:59.515Z,33.13
2019-04-14T05:58:27.972Z,33.30
2019-04-14T06:00:58.017Z,32.57
2019-04-14T06:03:27.680Z,31.77
2019-04-14T06:05:56.473Z,33.93
2019-04-14T06:08:25.066Z,31.67
2019-04-14T06:10:53.543Z,32.77
2019-04-14T06:13:22.011Z,32.13
2019-04-14T06:15:50.455Z,32.60
2019-04-14T06:18:18.919Z,32.10
2019-04-14T06:20:47.362Z,31.17
2019-04-14T06:23:16.139Z,32.10
2019-04-14T06:25:44.623Z,34.97
2019-04-14T06:28:13.115Z,34.47
2019-04-14T06:30:48.877Z,32.63
2019-04-14T06:33:18.980Z,30.33
2019-04-14T06:35:49.088Z,32.67
2019-04-14T06:38:28.450Z,31.80
2019-04-14T06:41:01.563Z,32.43
2019-04-14T06:43:30.004Z,32.00
2019-04-14T06:45:59.206Z,31.10
2019-04-14T06:48:27.659Z,33.30
2019-04-14T06:50:56.107Z,29.40
2019-04-14T06:53:24.565Z,28.30
2019-04-14T06:55:55.075Z,30.63
2019-04-14T06:58:23.723Z,33.50
2019-04-14T07:00:52.154Z,27.57
2019-04-14T07:03:20.965Z,30.40
2019-04-14T07:05:49.400Z,30.73
2019-04-14T07:08:17.864Z,30.03
2019-04-14T07:10:46.352Z,29.97
2019-04-14T07:13:14.808Z,31.23
2019-04-14T07:15:43.270Z,29.87
2019-04-14T07:18:12.154Z,31.77
2019-04-14T07:20:41.231Z,29.97
2019-04-14T07:23:09.701Z,29.47
2019-04-14T07:25:38.132Z,29.50
2019-04-14T07:28:06.587Z,30.57
2019-04-14T07:30:36.694Z,31.37
2019-04-14T07:33:09.463Z,29.00
2019-04-14T07:35:51.738Z,32.47
2019-04-14T07:38:28.241Z,33.40
2019-04-14T07:41:13.320Z,34.70
2019-04-14T07:43:49.189Z,31.93
2019-04-14T07:46:28.192Z,30.77
2019-04-14T07:49:07.358Z,27.13
2019-04-14T07:51:40.262Z,30.93
2019-04-14T07:54:10.363Z,30.53
2019-04-14T07:56:52.221Z,31.80
2019-04-14T07:59:22.769Z,30.60
2019-04-14T08:01:52.868Z,30.53
2019-04-14T08:04:22.953Z,32.23
2019-04-14T08:06:53.181Z,29.67
2019-04-14T08:09:21.627Z,35.03
2019-04-14T08:11:50.080Z,30.90
2019-04-14T08:14:21.638Z,32.57
2019-04-14T08:16:50.089Z,30.13
2019-04-14T08:19:18.597Z,33.87
2019-04-14T08:21:47.117Z,30.83
2019-04-14T08:24:15.551Z,34.93
2019-04-14T08:26:43.999Z,29.63
2019-04-14T08:29:12.457Z,29.70
2019-04-14T08:31:40.882Z,30.33
2019-04-14T08:34:09.641Z,30.07
2019-04-14T08:36:38.080Z,29.03
2019-04-14T08:39:09.921Z,30.77
2019-04-14T08:41:40.010Z,29.00
2019-04-14T08:44:10.122Z,28.63
2019-04-14T08:46:42.999Z,28.73
2019-04-14T08:49:15.874Z,29.33
2019-04-14T08:51:46.226Z,32.00
2019-04-14T08:54:16.645Z,30.13
2019-04-14T08:56:58.648Z,30.23
2019-04-14T08:59:38.068Z,29.53
2019-04-14T09:02:13.833Z,28.77
2019-04-14T09:04:46.850Z,26.90
2019-04-14T09:07:16.921Z,27.80
2019-04-14T09:09:47.353Z,26.60
2019-04-14T09:12:17.461Z,26.23
2019-04-14T09:14:56.302Z,24.37
2019-04-14T09:17:16.068Z,29.30
2019-04-14T09:19:44.530Z,30.90
2019-04-14T09:22:12.975Z,27.70
2019-04-14T09:24:41.495Z,27.67
2019-04-14T09:27:10.291Z,26.97
2019-04-14T09:29:38.788Z,26.53
2019-04-14T09:32:08.879Z,26.90
2019-04-14T09:34:37.325Z,26.63
2019-04-14T09:37:05.770Z,28.93
2019-04-14T09:39:34.225Z,27.87
2019-04-14T09:42:02.921Z,27.90
2019-04-14T09:44:31.365Z,27.67
2019-04-14T09:46:59.826Z,24.53
2019-04-14T09:49:28.275Z,28.80
2019-04-14T09:51:56.704Z,25.93
2019-04-14T09:54:25.151Z,25.77
2019-04-14T09:56:53.599Z,26.97
2019-04-14T09:59:22.073Z,29.27
2019-04-14T10:01:50.509Z,27.40
2019-04-14T10:04:18.934Z,27.10
2019-04-14T10:06:47.367Z,25.87
2019-04-14T10:09:15.889Z,25.83
2019-04-14T10:11:49.018Z,26.63
2019-04-14T10:14:14.657Z,27.23
2019-04-14T10:16:43.146Z,25.23
2019-04-14T10:19:11.607Z,24.90
2019-04-14T10:21:40.628Z,24.87
2019-04-14T10:24:09.068Z,26.60
2019-04-14T10:26:37.524Z,26.17
2019-04-14T10:29:06.009Z,25.67
2019-04-14T10:31:34.529Z,25.03
2019-04-14T10:34:03.011Z,27.97
2019-04-14T10:36:33.361Z,24.63
2019-04-14T10:39:01.793Z,23.97
2019-04-14T10:41:30.624Z,24.33
2019-04-14T10:43:59.122Z,24.63
2019-04-14T10:46:27.560Z,26.60
2019-04-14T10:48:56.001Z,26.53
2019-04-14T10:51:30.724Z,25.70
2019-04-14T10:53:54.612Z,25.20
2019-04-14T10:56:23.066Z,25.67
2019-04-14T10:58:51.510Z,24.57
2019-04-14T11:01:19.960Z,24.33
2019-04-14T11:03:48.407Z,21.23
2019-04-14T11:06:24.533Z,25.57
2019-04-14T11:08:52.965Z,23.10
2019-04-14T11:11:21.413Z,21.33
2019-04-14T11:13:49.857Z,24.00
2019-04-14T11:16:18.410Z,25.80
2019-04-14T11:18:46.931Z,22.13
2019-04-14T11:21:15.430Z,26.47
2019-04-14T11:23:43.840Z,22.43
2019-04-14T11:26:12.664Z,26.07
2019-04-14T11:28:41.101Z,24.20
2019-04-14T11:31:09.985Z,23.07
2019-04-14T11:33:55.950Z,24.77
2019-04-14T11:36:28.512Z,25.03
2019-04-14T11:39:01.440Z,25.03
2019-04-14T11:41:29.891Z,23.00
2019-04-14T11:43:58.345Z,23.20
2019-04-14T11:46:26.817Z,25.00
2019-04-14T11:48:55.248Z,22.40
2019-04-14T11:51:23.697Z,23.10
2019-04-14T11:53:52.117Z,21.43
2019-04-14T11:56:20.588Z,24.00
2019-04-14T11:58:49.074Z,22.60
2019-04-14T12:01:19.265Z,24.63
2019-04-14T12:03:52.645Z,23.00
2019-04-14T12:06:22.732Z,22.87
2019-04-14T12:08:56.167Z,23.37
2019-04-14T12:11:24.617Z,23.50
2019-04-14T12:13:53.072Z,23.00
2019-04-14T12:16:21.645Z,25.10
2019-04-14T12:18:50.068Z,25.93
2019-04-14T12:21:18.551Z,27.67
2019-04-14T12:23:50.856Z,23.33
2019-04-14T12:26:19.312Z,24.87
2019-04-14T12:28:47.787Z,23.77
2019-04-14T12:31:17.450Z,25.40
2019-04-14T12:33:47.811Z,25.53
2019-04-14T12:36:16.333Z,23.23
2019-04-14T12:38:45.171Z,30.20
2019-04-14T12:41:15.644Z,24.50
2019-04-14T12:43:45.716Z,25.80
2019-04-14T12:46:18.515Z,24.13
2019-04-14T12:48:48.647Z,26.57
2019-04-14T12:51:20.501Z,24.33
2019-04-14T12:53:48.885Z,25.77
2019-04-14T12:56:19.042Z,25.20
2019-04-14T12:59:00.974Z,25.57
2019-04-14T13:01:31.150Z,25.17
2019-04-14T13:03:59.673Z,24.23
2019-04-14T13:06:28.128Z,29.20
2019-04-14T13:08:57.043Z,25.10
2019-04-14T13:11:25.840Z,22.10
2019-04-14T13:13:54.293Z,21.40
2019-04-14T13:16:22.749Z,24.70
2019-04-14T13:18:51.690Z,26.27
2019-04-14T13:21:20.139Z,20.63
2019-04-14T13:23:48.634Z,24.33
2019-04-14T13:26:17.156Z,21.90
2019-04-14T13:28:45.619Z,23.60
2019-04-14T13:31:14.046Z,20.37
2019-04-14T13:33:42.490Z,23.30
2019-04-14T13:36:10.948Z,22.83
2019-04-14T13:38:39.383Z,17.63
2019-04-14T13:41:07.828Z,20.83
2019-04-14T13:43:36.300Z,18.83
2019-04-14T13:46:04.839Z,15.60
2019-04-14T13:48:33.276Z,16.20
2019-04-14T13:51:01.734Z,14.20
2019-04-14T13:53:30.172Z,15.87
2019-04-14T13:55:58.604Z,15.83
2019-04-14T13:58:27.450Z,15.80
2019-04-14T14:00:55.934Z,15.63
2019-04-14T14:03:24.439Z,17.73
2019-04-14T14:05:53.197Z,14.30
2019-04-14T14:08:21.762Z,15.07
2019-04-14T14:10:51.883Z,14.30
2019-04-14T14:13:22.025Z,14.57
2019-04-14T14:16:10.165Z,13.23
2019-04-14T14:18:45.973Z,13.07
2019-04-14T14:21:16.434Z,13.60
2019-04-14T14:23:58.533Z,15.83
2019-04-14T14:26:28.607Z,14.43
2019-04-14T14:28:57.064Z,14.93
2019-04-14T14:31:25.513Z,15.10
2019-04-14T14:33:53.952Z,13.37
2019-04-14T14:36:22.397Z,13.40
2019-04-14T14:38:50.900Z,13.07
2019-04-14T14:41:19.325Z,12.90
2019-04-14T14:43:47.800Z,14.53
2019-04-14T14:46:36.852Z,13.10
2019-04-14T14:49:09.027Z,13.87
2019-04-14T14:51:51.053Z,13.20
2019-04-14T14:54:19.508Z,15.33
2019-04-14T14:56:47.967Z,14.63
2019-04-14T14:59:16.410Z,14.43
2019-04-14T15:01:44.933Z,13.63
2019-04-14T15:04:13.401Z,15.53
2019-04-14T15:06:41.822Z,13.77
2019-04-14T15:09:11.319Z,15.13
2019-04-14T15:11:39.736Z,14.57
2019-04-14T15:14:08.197Z,12.70
2019-04-14T15:16:36.728Z,11.70
2019-04-14T15:19:05.166Z,12.87
2019-04-14T15:21:33.600Z,12.77
2019-04-14T15:24:02.085Z,12.63
2019-04-14T15:26:30.613Z,12.50
2019-04-14T15:28:59.105Z,13.27
2019-04-14T15:31:27.617Z,12.33
2019-04-14T15:33:56.053Z,14.37
2019-04-14T15:36:24.992Z,12.13
2019-04-14T15:38:53.455Z,14.27
2019-04-14T15:41:21.876Z,11.70
2019-04-14T15:43:50.364Z,13.17
2019-04-14T15:46:19.230Z,14.30
2019-04-14T15:48:47.780Z,13.57
2019-04-14T15:51:16.221Z,13.23
2019-04-14T15:53:44.688Z,13.93
2019-04-14T15:56:14.778Z,10.97
2019-04-14T15:58:50.580Z,11.90
2019-04-14T16:01:26.324Z,11.80
2019-04-14T16:04:12.616Z,11.17
2019-04-14T16:06:45.722Z,10.60
2019-04-14T16:09:21.931Z,11.10
2019-04-14T16:12:04.225Z,11.20
2019-04-14T16:14:34.469Z,11.33
2019-04-14T16:17:19.516Z,10.57
2019-04-14T16:20:04.675Z,11.50
2019-04-14T16:22:33.155Z,12.23
2019-04-14T16:25:01.674Z,12.67
2019-04-14T16:27:37.644Z,12.00
2019-04-14T16:30:24.457Z,11.60
2019-04-14T16:33:03.155Z,13.67
2019-04-14T16:35:33.264Z,12.73
2019-04-14T16:38:01.746Z,14.00
2019-04-14T16:40:30.284Z,12.43
2019-04-14T16:42:58.755Z,12.03
2019-04-14T16:45:27.196Z,12.93
2019-04-14T16:47:55.984Z,14.20
2019-04-14T16:50:24.501Z,13.17
2019-04-14T16:52:54.627Z,13.03
2019-04-14T16:55:40.959Z,14.20
2019-04-14T16:58:11.042Z,13.70
2019-04-14T17:00:41.125Z,17.00
2019-04-14T17:03:09.549Z,17.10
2019-04-14T17:05:39.211Z,14.90
2019-04-14T17:08:08.381Z,14.63
2019-04-14T17:10:36.823Z,16.20
2019-04-14T17:13:08.692Z,13.30
2019-04-14T17:15:41.572Z,15.13
2019-04-14T17:18:27.157Z,14.43
2019-04-14T17:21:11.957Z,14.73
2019-04-14T17:23:42.044Z,17.43
2019-04-14T17:26:12.137Z,14.63
2019-04-14T17:28:48.573Z,17.03
2019-04-14T17:31:24.893Z,15.37
2019-04-14T17:34:06.912Z,17.67
2019-04-14T17:36:53.593Z,16.30
2019-04-14T17:39:23.653Z,16.00
2019-04-14T17:42:03.348Z,17.37
2019-04-14T17:44:39.603Z,17.97
2019-04-14T17:47:27.657Z,18.10
2019-04-14T17:50:00.758Z,16.03
2019-04-14T17:52:37.109Z,14.73
2019-04-14T17:55:25.584Z,15.53
2019-04-14T17:58:01.416Z,17.43
2019-04-14T18:00:48.029Z,16.07
2019-04-14T18:03:20.929Z,14.10
2019-04-14T18:06:09.078Z,13.53
2019-04-14T18:08:54.015Z,14.63
2019-04-14T18:11:30.289Z,13.97
2019-04-14T18:14:00.382Z,17.87
2019-04-14T18:16:46.973Z,14.93
2019-04-14T18:19:20.030Z,17.73
2019-04-14T18:21:48.461Z,16.20
2019-04-14T18:24:16.904Z,16.80
2019-04-14T18:26:45.369Z,17.60
2019-04-14T18:29:31.920Z,15.07
2019-04-14T18:32:07.838Z,16.93
2019-04-14T18:34:50.000Z,15.27
2019-04-14T18:37:29.197Z,15.73
2019-04-14T18:40:05.423Z,15.87
2019-04-14T18:42:38.083Z,13.80
2019-04-14T18:45:15.468Z,13.13
2019-04-14T18:47:54.745Z,15.90
2019-04-14T18:50:43.045Z,14.20
2019-04-14T18:53:13.177Z,13.77
2019-04-14T18:55:45.938Z,13.27
2019-04-14T18:58:18.801Z,22.10
2019-04-14T19:00:51.841Z,20.60
2019-04-14T19:03:20.294Z,17.00
2019-04-14T19:05:48.757Z,15.43
2019-04-14T19:08:17.212Z,15.77
2019-04-14T19:10:47.308Z,17.40
2019-04-14T19:13:20.054Z,16.77
2019-04-14T19:15:50.143Z,16.20
2019-04-14T19:18:22.353Z,15.57
2019-04-14T19:20:52.439Z,15.43
2019-04-14T19:23:21.179Z,13.80
2019-04-14T19:25:49.604Z,17.60
2019-04-14T19:28:18.062Z,16.27
2019-04-14T19:30:46.522Z,14.30
2019-04-14T19:33:17.981Z,16.97
2019-04-14T19:35:46.420Z,15.10
2019-04-14T19:38:14.873Z,14.77
2019-04-14T19:40:43.311Z,14.93
2019-04-14T19:43:23.101Z,15.40
2019-04-14T19:45:41.905Z,15.57
2019-04-14T19:48:10.390Z,15.50
2019-04-14T19:50:38.831Z,15.83
2019-04-14T19:53:07.290Z,14.67
2019-04-14T19:55:37.217Z,17.67
2019-04-14T19:58:06.061Z,15.17
2019-04-14T20:00:34.488Z,16.93
2019-04-14T20:03:02.928Z,15.77
2019-04-14T20:05:31.381Z,15.60
2019-04-14T20:07:59.848Z,18.30
2019-04-14T20:10:28.298Z,16.53
2019-04-14T20:12:56.754Z,16.63
2019-04-14T20:15:26.820Z,15.17
2019-04-14T20:18:03.068Z,14.87
2019-04-14T20:20:48.129Z,18.13
2019-04-14T20:23:18.712Z,16.93
2019-04-14T20:26:03.984Z,15.93
2019-04-14T20:28:40.052Z,19.80
2019-04-14T20:31:19.355Z,13.20
2019-04-14T20:33:47.808Z,16.47
2019-04-14T20:36:16.285Z,12.30
2019-04-14T20:38:44.716Z,12.57
2019-04-14T20:41:13.180Z,11.53
2019-04-14T20:43:41.962Z,12.80
2019-04-14T20:46:10.402Z,13.17
2019-04-14T20:48:38.860Z,13.73
2019-04-14T20:51:07.311Z,15.63
2019-04-14T20:53:35.766Z,15.70
2019-04-14T20:56:04.190Z,12.97
2019-04-14T20:58:32.946Z,13.07
2019-04-14T21:01:01.385Z,13.27
2019-04-14T21:03:31.495Z,16.57
2019-04-14T21:06:07.093Z,14.90
2019-04-14T21:08:55.294Z,14.90
2019-04-14T21:11:25.664Z,14.63
2019-04-14T21:13:55.769Z,14.93
2019-04-14T21:16:28.528Z,13.77
2019-04-14T21:18:58.613Z,12.73
2019-04-14T21:21:40.581Z,12.47
2019-04-14T21:24:26.848Z,11.30
2019-04-14T21:26:59.886Z,12.33
2019-04-14T21:29:30.379Z,13.47
2019-04-14T21:32:06.352Z,14.07
2019-04-14T21:34:36.453Z,13.30
2019-04-14T21:37:15.196Z,12.60
2019-04-14T21:39:45.289Z,12.67
2019-04-14T21:42:14.398Z,13.30
2019-04-14T21:44:42.904Z,13.50
2019-04-14T21:47:11.354Z,14.00
2019-04-14T21:49:39.799Z,13.17
2019-04-14T21:52:09.876Z,12.93
2019-04-14T21:54:40.281Z,12.13
2019-04-14T21:57:10.351Z,10.63
2019-04-14T21:59:58.665Z,13.40
2019-04-14T22:02:45.140Z,13.43
2019-04-14T22:05:30.428Z,13.93
2019-04-14T22:08:16.922Z,14.33
2019-04-14T22:11:05.088Z,13.17
2019-04-14T22:13:33.549Z,14.17
2019-04-14T22:16:02.077Z,13.30
2019-04-14T22:18:30.508Z,13.87
2019-04-14T22:20:59.049Z,14.47
2019-04-14T22:23:27.513Z,16.23
2019-04-14T22:25:56.022Z,15.43
2019-04-14T22:28:24.482Z,17.13
2019-04-14T22:30:53.015Z,13.77
2019-04-14T22:33:21.469Z,14.33
2019-04-14T22:35:49.910Z,15.73
2019-04-14T22:38:18.383Z,15.67
2019-04-14T22:40:47.210Z,14.40
2019-04-14T22:43:15.714Z,14.00
2019-04-14T22:45:44.250Z,19.40
2019-04-14T22:48:12.690Z,18.50
2019-04-14T22:50:41.142Z,19.17
2019-04-14T22:53:09.596Z,22.50
2019-04-14T22:55:38.059Z,25.80
2019-04-14T22:58:06.630Z,18.77
2019-04-14T23:00:42.576Z,16.10
2019-04-14T23:03:30.882Z,20.67
2019-04-14T23:06:07.129Z,15.40
2019-04-14T23:08:43.013Z,16.97
2019-04-14T23:11:18.732Z,14.27
2019-04-14T23:14:05.152Z,14.83
2019-04-14T23:16:38.262Z,14.93
2019-04-14T23:19:14.142Z,15.97
2019-04-14T23:21:44.211Z,21.23
2019-04-14T23:24:22.912Z,18.03
2019-04-14T23:26:52.922Z,14.87
2019-04-14T23:29:21.529Z,15.40
2019-04-14T23:31:50.072Z,15.67
2019-04-14T23:34:18.880Z,15.63
2019-04-14T23:36:47.335Z,17.17
2019-04-14T23:39:15.760Z,16.03
2019-04-14T23:41:44.212Z,17.73
2019-04-14T23:44:12.672Z,17.23
2019-04-14T23:46:41.114Z,15.77
2019-04-14T23:49:09.590Z,15.20
2019-04-14T23:51:38.039Z,16.10
2019-04-14T23:54:06.498Z,16.00
2019-04-14T23:56:35.046Z,16.23
2019-04-14T23:59:03.969Z,15.73
